Terminal Aerodrome Forecast
Issued by NWS

Home | Current Version | Previous Version | Text Only | Print | Product List | Glossary On
Versions: 1 2 3 4 5 6 7 8 9 10 11 12 13 14 15 16 17 18 19 20 21
000
FTUS41 KGYX 212328
TAFRKD
TAF
KRKD 212328Z 2200/2224 VRB03KT 1/4SM FG OVC001
     FM221300 25010G16KT 1/4SM FG OVC001
     FM221500 26012G18KT 1/2SM FG SCT003 BKN020
     FM221600 28012G20KT P6SM SCT250
      AMD LTD TO CLD VIS AND WIND=

USA.gov is the U.S. government's official web portal to all federal, state and local government web resources and services.